Time;durP1;ratioP1;P1;durP2;ratioP2;P2;SDS_P1;SDS_P2;PMS_P1;PMS_P2;Temp;Humidity;BMP_temperature;BMP_pressure;BME280_temperature;BME280_humidity;BME280_pressure;Samples;Min_cycle;Max_cycle;Signal;HPM_P1;HPM_P2
2021/06/25 00:02:02;;;;;;;;;3.25;3.25;;;;;28.90;65.87;98435.88;5014846;28;8955;-72
2021/06/25 00:04:30;;;;;;;;;4.25;4.25;;;;;28.94;65.64;98422.28;5014809;28;8927;-72
2021/06/25 00:06:59;;;;;;;;;2.00;2.00;;;;;29.02;64.97;98425.72;5014718;28;8860;-72
2021/06/25 00:09:28;;;;;;;;;5.25;5.25;;;;;29.06;65.34;98429.97;5014722;28;8923;-72
2021/06/25 00:11:56;;;;;;;;;2.75;2.75;;;;;29.05;64.84;98423.00;5015320;28;8865;-72
2021/06/25 00:14:25;;;;;;;;;3.75;3.75;;;;;29.01;64.62;98421.47;5014614;28;8939;-72
2021/06/25 00:16:54;;;;;;;;;4.75;4.75;;;;;29.15;65.07;98440.38;5014723;28;8873;-72
2021/06/25 00:19:22;;;;;;;;;4.50;4.50;;;;;29.23;65.07;98444.59;5014552;28;8838;-72
2021/06/25 00:21:51;;;;;;;;;4.00;4.00;;;;;29.25;64.60;98444.22;5014500;28;8944;-72
2021/06/25 00:24:20;;;;;;;;;4.75;4.75;;;;;29.22;64.21;98434.91;5014406;28;8837;-72
2021/06/25 00:26:50;;;;;;;;;4.50;4.50;;;;;29.30;64.11;98446.50;5014377;28;8903;-72
2021/06/25 00:29:19;;;;;;;;;4.75;4.75;;;;;29.40;63.83;98459.25;5014270;28;8864;-72
2021/06/25 00:31:48;;;;;;;;;2.25;2.25;;;;;29.44;63.58;98465.47;5014278;28;8849;-72
2021/06/25 00:34:17;;;;;;;;;2.75;2.75;;;;;29.47;63.14;98453.78;5014172;28;8861;-72
2021/06/25 00:36:46;;;;;;;;;2.75;2.75;;;;;29.53;63.01;98463.84;5014441;28;8926;-72
2021/06/25 00:39:14;;;;;;;;;3.50;3.50;;;;;29.58;62.10;98462.63;5014733;28;8877;-72
2021/06/25 00:41:43;;;;;;;;;3.75;3.75;;;;;29.45;62.11;98437.09;5014345;28;8952;-72
2021/06/25 00:44:19;;;;;;;;;2.00;2.00;;;;;29.58;60.98;98462.63;5012826;28;9413;-72
2021/06/25 00:46:48;;;;;;;;;3.50;3.50;;;;;29.67;60.97;98473.81;5013989;28;8833;-72
2021/06/25 00:49:18;;;;;;;;;2.25;2.25;;;;;29.69;60.47;98466.03;5013908;28;8857;-72
2021/06/25 00:51:46;;;;;;;;;2.50;2.50;;;;;29.77;60.30;98475.69;5013953;28;8935;-72
2021/06/25 00:54:15;;;;;;;;;2.50;2.50;;;;;29.79;60.53;98467.91;5013778;28;8837;-72
2021/06/25 00:56:44;;;;;;;;;3.00;3.00;;;;;29.84;60.29;98472.13;5013830;28;8971;-72
2021/06/25 00:59:13;;;;;;;;;2.75;2.25;;;;;29.90;59.53;98469.75;5013490;28;8861;-73
2021/06/25 01:01:41;;;;;;;;;2.00;2.00;;;;;29.89;58.56;98463.53;5011746;28;8915;-72
2021/06/25 01:04:14;;;;;;;;;2.00;2.00;;;;;29.86;58.07;98453.47;5013374;28;8907;-73
2021/06/25 01:06:43;;;;;;;;;2.00;2.00;;;;;30.01;57.24;98471.22;5013766;28;8891;-73
2021/06/25 01:09:12;;;;;;;;;2.50;2.50;;;;;30.05;58.11;98468.44;5013855;28;9673;-72
2021/06/25 01:11:41;;;;;;;;;1.25;1.25;;;;;30.13;58.06;98478.84;5013527;28;8907;-73
2021/06/25 01:14:10;;;;;;;;;3.25;3.25;;;;;30.11;58.39;98464.13;5013320;28;8841;-72
2021/06/25 01:16:40;;;;;;;;;4.25;4.25;;;;;30.17;57.92;98476.09;5013343;28;8951;-72
2021/06/25 01:19:14;;;;;;;;;2.50;2.50;;;;;30.22;58.00;98480.34;5013181;28;8861;-72
2021/06/25 01:21:45;;;;;;;;;1.75;1.75;;;;;30.19;56.93;98477.25;5013000;28;8953;-73
2021/06/25 01:24:13;;;;;;;;;1.75;1.75;;;;;30.24;56.10;98478.75;5012713;28;8919;-72
2021/06/25 01:26:42;;;;;;;;;2.00;2.00;;;;;30.28;56.10;98478.72;5012767;28;8968;-71
2021/06/25 01:29:10;;;;;;;;;1.00;1.00;;;;;30.23;55.46;98479.94;5012923;28;8946;-73
2021/06/25 01:31:39;;;;;;;;;1.00;1.00;;;;;30.27;54.51;98475.22;5012954;28;8964;-72
2021/06/25 01:34:08;;;;;;;;;2.00;2.00;;;;;30.38;55.32;98483.28;5012234;28;8891;-73
2021/06/25 01:36:38;;;;;;;;;2.00;2.00;;;;;30.42;56.82;98486.72;5013385;28;8923;-74
2021/06/25 01:39:06;;;;;;;;;3.75;2.00;;;;;30.39;57.29;98468.50;5013007;28;8849;-74
2021/06/25 01:41:38;;;;;;;;;3.25;3.25;;;;;30.52;56.90;98489.34;5012736;28;8845;-73
2021/06/25 01:44:07;;;;;;;;;3.25;3.25;;;;;30.57;57.45;98493.56;5012622;28;8849;-72
2021/06/25 01:46:36;;;;;;;;;2.00;2.00;;;;;30.60;56.50;98490.06;5012728;28;9709;-74
2021/06/25 01:49:04;;;;;;;;;2.00;2.00;;;;;30.55;56.63;98473.38;5012777;28;8863;-73
2021/06/25 01:51:33;;;;;;;;;2.00;2.00;;;;;30.69;56.69;98492.28;5012508;28;8976;-73
2021/06/25 01:54:01;;;;;;;;;2.00;2.00;;;;;30.59;56.41;98469.47;5027524;28;8842;-74
2021/06/25 01:56:30;;;;;;;;;2.60;2.40;;;;;30.65;55.67;98477.94;5012556;28;8849;-73
2021/06/25 01:58:59;;;;;;;;;2.25;2.25;;;;;30.82;55.81;98496.81;5012134;28;8960;-74
2021/06/25 02:01:28;;;;;;;;;1.60;1.60;;;;;30.86;55.63;98494.03;5012374;28;8960;-74
2021/06/25 02:03:58;;;;;;;;;1.00;1.00;;;;;30.89;55.03;98490.50;5011591;28;8822;-73
2021/06/25 02:06:27;;;;;;;;;1.80;1.80;;;;;30.87;54.97;98495.59;5011004;28;8814;-73
2021/06/25 02:08:55;;;;;;;;;3.00;3.00;;;;;30.91;54.89;98490.84;5011085;28;8883;-74
2021/06/25 02:11:24;;;;;;;;;1.00;1.00;;;;;30.92;55.18;98495.13;5010723;28;8887;-72
2021/06/25 02:13:52;;;;;;;;;1.00;1.00;;;;;30.96;54.56;98495.09;5009939;28;8829;-72
2021/06/25 02:16:21;;;;;;;;;1.00;1.00;;;;;30.92;54.34;98484.22;5009547;28;8919;-72
2021/06/25 02:18:50;;;;;;;;;2.00;2.00;;;;;30.96;54.57;98489.63;5012031;28;8833;-73
2021/06/25 02:21:18;;;;;;;;;4.00;4.00;;;;;30.95;55.05;98474.47;5011814;28;8846;-74
2021/06/25 02:23:47;;;;;;;;;1.75;1.75;;;;;31.05;54.97;98485.22;5010007;28;8829;-72
2021/06/25 02:26:16;;;;;;;;;3.00;3.00;;;;;31.06;55.09;98494.94;5010836;28;8861;-73
2021/06/25 02:28:45;;;;;;;;;2.40;2.40;;;;;31.05;54.84;98489.91;5011363;28;8987;-71
2021/06/25 02:31:13;;;;;;;;;2.00;2.00;;;;;30.96;54.62;98476.00;5011736;28;8845;-74
2021/06/25 02:33:42;;;;;;;;;1.40;1.40;;;;;31.03;55.12;98492.25;5009905;28;8829;-74
2021/06/25 02:36:11;;;;;;;;;2.00;2.00;;;;;31.00;54.82;98502.03;5009540;28;8993;-73
2021/06/25 02:38:39;;;;;;;;;1.20;1.20;;;;;30.96;54.92;98500.53;5009013;28;8856;-72
2021/06/25 02:41:08;;;;;;;;;3.20;2.20;;;;;30.93;55.39;98504.84;5010109;28;8988;-72
2021/06/25 02:43:36;;;;;;;;;1.60;1.60;;;;;30.92;55.21;98505.25;5010347;28;9657;-72
2021/06/25 02:46:05;;;;;;;;;2.60;2.60;;;;;30.95;54.85;98507.94;5008673;28;8853;-72
2021/06/25 02:48:37;;;;;;;;;2.60;2.60;;;;;30.96;55.12;98505.97;5006189;28;8907;-75
2021/06/25 02:51:06;;;;;;;;;1.00;1.00;;;;;30.85;54.84;98484.31;5010124;28;8841;-77
2021/06/25 02:53:34;;;;;;;;;2.20;2.20;;;;;30.99;55.10;98505.16;5010512;28;8846;-78
2021/06/25 02:56:03;;;;;;;;;1.00;1.00;;;;;30.88;54.56;98480.00;5010608;28;8950;-74
2021/06/25 02:58:31;;;;;;;;;2.00;2.00;;;;;31.03;54.90;98493.03;5003879;28;8899;-72
2021/06/25 03:01:00;;;;;;;;;1.80;1.80;;;;;31.05;53.93;98490.69;5009451;28;8838;-74
2021/06/25 03:03:29;;;;;;;;;2.40;2.40;;;;;31.09;54.41;98498.81;5008069;28;8900;-74
2021/06/25 03:06:03;;;;;;;;;2.00;2.00;;;;;31.07;54.56;98488.31;5009923;28;8857;-73
2021/06/25 03:08:32;;;;;;;;;1.60;1.60;;;;;31.17;53.77;98497.56;5010748;28;9669;-73
2021/06/25 03:11:02;;;;;;;;;1.00;1.00;;;;;31.23;53.59;98495.88;5011245;28;8842;-72
2021/06/25 03:13:31;;;;;;;;;1.80;1.80;;;;;31.26;53.21;98486.13;5011189;28;8841;-73
2021/06/25 03:16:06;;;;;;;;;1.00;1.00;;;;;31.42;53.49;98494.44;5010620;28;8833;-73
2021/06/25 03:18:39;;;;;;;;;2.00;2.00;;;;;31.50;54.20;98484.97;5009865;28;8834;-73
2021/06/25 03:21:07;;;;;;;;;3.00;3.00;;;;;31.61;53.68;98484.81;5007715;28;8838;-71
2021/06/25 03:23:36;;;;;;;;;2.00;2.00;;;;;31.70;52.87;98488.59;5009425;28;9559;-72
2021/06/25 03:26:05;;;;;;;;;1.40;1.40;;;;;31.68;53.05;98468.34;5016260;28;8830;-73
2021/06/25 03:28:34;;;;;;;;;2.00;2.00;;;;;31.73;53.66;98473.34;5019217;28;8944;-73
2021/06/25 03:31:04;;;;;;;;;1.00;1.00;;;;;31.82;52.57;98484.50;5017998;28;8833;-74
2021/06/25 03:33:33;;;;;;;;;2.00;2.00;;;;;31.85;52.99;98477.44;5018105;28;8908;-73
2021/06/25 03:36:02;;;;;;;;;1.20;1.20;;;;;31.83;52.94;98468.91;5025953;28;8839;-72
2021/06/25 03:38:31;;;;;;;;;2.00;2.00;;;;;31.84;53.53;98460.31;5015021;28;8845;-72
2021/06/25 03:41:00;;;;;;;;;1.80;1.80;;;;;31.90;53.53;98466.06;5010633;28;8910;-75
2021/06/25 03:43:29;;;;;;;;;4.20;4.20;;;;;31.94;53.13;98464.03;5011225;28;8944;-74
2021/06/25 03:45:58;;;;;;;;;3.20;3.20;;;;;31.97;53.32;98463.97;5011342;28;8861;-74
2021/06/25 03:48:26;;;;;;;;;1.00;1.00;;;;;32.02;53.22;98462.72;5011281;28;8830;-73
2021/06/25 03:50:55;;;;;;;;;3.00;3.00;;;;;32.07;53.07;98456.78;5026462;28;8989;-74
2021/06/25 03:53:23;;;;;;;;;2.20;2.20;;;;;32.11;52.29;98450.09;5026233;28;8842;-74
2021/06/25 03:58:33;;;;;;;;;2.00;2.00;;;;;32.28;53.03;98448.25;5011681;28;8865;-74
2021/06/25 04:01:02;;;;;;;;;1.20;1.20;;;;;32.35;53.14;98445.38;5010890;28;8833;-78
2021/06/25 04:03:31;;;;;;;;;3.40;3.40;;;;;32.45;52.32;98442.84;5024883;28;8850;-75
2021/06/25 04:06:00;;;;;;;;;1.00;1.00;;;;;32.55;52.31;98441.84;5011586;28;8919;-73
2021/06/25 04:08:30;;;;;;;;;2.40;2.40;;;;;32.60;51.80;98433.94;5012631;28;9673;-72
2021/06/25 04:11:00;;;;;;;;;1.00;1.00;;;;;32.69;51.10;98441.56;5011996;28;9535;-75
2021/06/25 04:13:31;;;;;;;;;1.00;1.00;;;;;32.71;50.72;98434.47;5011641;28;8895;-74
2021/06/25 04:16:00;;;;;;;;;3.00;3.00;;;;;32.84;51.33;98434.63;5011597;28;8900;-74
2021/06/25 04:18:29;;;;;;;;;2.00;2.00;;;;;32.91;50.99;98448.13;5011940;28;8864;-74
2021/06/25 04:20:59;;;;;;;;;2.00;2.00;;;;;32.91;51.12;98429.00;5011688;28;8858;-74
2021/06/25 04:23:28;;;;;;;;;2.00;2.00;;;;;32.98;50.16;98437.06;5014130;28;8935;-79
2021/06/25 04:25:57;;;;;;;;;1.80;1.80;;;;;33.13;50.00;98445.72;5013700;28;8911;-73
2021/06/25 04:28:26;;;;;;;;;1.60;1.60;;;;;33.16;50.55;98435.88;5012801;28;8911;-72
2021/06/25 04:30:55;;;;;;;;;1.60;1.60;;;;;33.27;50.04;98433.69;5011945;28;9666;-72
2021/06/25 04:33:24;;;;;;;;;1.00;1.00;;;;;33.38;49.94;98439.69;5023449;28;8822;-72
2021/06/25 04:35:53;;;;;;;;;2.20;1.60;;;;;33.46;50.30;98440.28;5009870;28;8860;-75
2021/06/25 04:38:22;;;;;;;;;1.00;1.00;;;;;33.39;49.45;98427.56;5011073;28;8857;-76
2021/06/25 04:40:51;;;;;;;;;2.00;2.00;;;;;33.55;51.10;98446.69;5011742;28;8845;-74
2021/06/25 04:43:20;;;;;;;;;1.00;1.00;;;;;33.59;50.18;98441.16;5011535;28;9003;-73
2021/06/25 04:45:48;;;;;;;;;0.00;0.00;;;;;33.62;49.71;98434.81;5011313;28;8834;-71
2021/06/25 04:48:18;;;;;;;;;3.40;3.00;;;;;33.56;49.38;98418.16;5010717;28;9492;-71
2021/06/25 04:50:46;;;;;;;;;1.00;1.00;;;;;33.57;49.65;98414.22;5010809;28;8935;-71
2021/06/25 04:53:14;;;;;;;;;1.20;1.20;;;;;33.76;48.91;98441.91;5010180;28;8964;-73
2021/06/25 04:55:45;;;;;;;;;2.80;2.80;;;;;33.79;49.61;98449.25;5011964;28;8838;-72
2021/06/25 04:58:16;;;;;;;;;2.00;2.00;;;;;33.82;50.23;98432.75;5010134;28;8845;-71
2021/06/25 05:00:46;;;;;;;;;2.00;2.00;;;;;33.86;47.62;98435.38;5011399;28;8857;-73
2021/06/25 05:03:15;;;;;;;;;2.20;2.20;;;;;33.88;48.21;98441.19;5007696;28;9420;-72
2021/06/25 05:05:45;;;;;;;;;1.80;1.80;;;;;33.96;48.87;98428.88;5008691;28;8818;-72
2021/06/25 05:08:13;;;;;;;;;0.60;0.60;;;;;34.03;48.88;98426.72;5018500;28;8849;-71
2021/06/25 05:10:42;;;;;;;;;2.00;2.00;;;;;34.14;48.95;98429.16;5009119;28;9692;-71
2021/06/25 05:13:13;;;;;;;;;0.80;0.80;;;;;34.17;49.12;98411.09;5009913;28;8858;-73
2021/06/25 05:15:42;;;;;;;;;0.80;0.80;;;;;34.44;47.53;98416.25;5009099;28;8860;-74
2021/06/25 05:18:14;;;;;;;;;2.00;2.00;;;;;34.58;48.16;98411.13;5007214;28;8868;-73
2021/06/25 05:21:04;;;;;;;;;1.00;1.00;;;;;34.66;46.36;98401.50;5008586;28;8890;-74
2021/06/25 05:23:34;;;;;;;;;1.00;1.00;;;;;34.78;46.35;98413.69;5011011;28;9574;-73
2021/06/25 05:26:02;;;;;;;;;2.80;2.80;;;;;34.84;48.33;98414.69;5011340;28;8825;-74
2021/06/25 05:28:31;;;;;;;;;1.00;1.00;;;;;34.88;46.13;98409.88;5010456;28;8826;-73
2021/06/25 05:31:04;;;;;;;;;2.40;2.00;;;;;34.90;46.46;98404.72;5010315;28;8852;-70
2021/06/25 05:33:33;;;;;;;;;1.40;1.40;;;;;34.87;47.29;98399.34;5008808;28;8841;-73
2021/06/25 05:36:02;;;;;;;;;1.60;1.60;;;;;34.84;47.32;98398.25;5010755;28;8849;-73
2021/06/25 05:38:30;;;;;;;;;2.80;2.80;;;;;34.78;46.89;98382.78;5026742;28;8837;-73
2021/06/25 05:40:59;;;;;;;;;2.40;2.40;;;;;34.87;46.84;98400.13;5011012;28;8838;-72
2021/06/25 05:43:28;;;;;;;;;2.00;2.00;;;;;34.82;47.05;98381.47;5008240;28;8846;-78
2021/06/25 05:45:56;;;;;;;;;0.60;0.60;;;;;34.91;45.51;98384.34;5010564;28;8899;-72
2021/06/25 05:48:26;;;;;;;;;0.60;0.60;;;;;34.96;46.32;98386.53;5009733;28;9558;-70
2021/06/25 05:50:54;;;;;;;;;2.20;2.20;;;;;34.99;45.36;98380.16;5009359;28;8837;-71
2021/06/25 05:53:23;;;;;;;;;0.80;0.80;;;;;35.05;45.51;98377.66;5011765;28;8853;-70
2021/06/25 05:55:52;;;;;;;;;1.20;1.20;;;;;35.11;46.58;98384.06;5009919;28;9006;-71
2021/06/25 05:58:21;;;;;;;;;3.00;3.00;;;;;35.21;45.54;98376.72;5012139;28;8911;-72
2021/06/25 06:00:49;;;;;;;;;1.00;1.00;;;;;35.24;44.80;98364.88;5012249;28;8853;-70
2021/06/25 06:03:18;;;;;;;;;1.00;1.00;;;;;35.37;45.10;98382.09;5012157;28;8923;-70
2021/06/25 06:05:46;;;;;;;;;3.00;1.00;;;;;35.39;45.63;98379.69;5011873;28;8877;-72
2021/06/25 06:08:15;;;;;;;;;1.40;1.40;;;;;35.38;45.14;98363.66;5012167;28;8861;-73
2021/06/25 06:10:43;;;;;;;;;0.60;0.60;;;;;35.32;46.54;98366.19;5011897;28;8864;-73
2021/06/25 06:13:12;;;;;;;;;3.00;3.00;;;;;35.29;45.43;98376.03;5000258;28;8861;-73
2021/06/25 06:15:41;;;;;;;;;1.20;1.20;;;;;35.26;47.16;98365.19;5011260;28;9566;-74
2021/06/25 06:18:13;;;;;;;;;2.80;2.80;;;;;35.36;45.98;98366.84;5011324;28;8850;-73
2021/06/25 06:20:41;;;;;;;;;0.80;0.80;;;;;35.48;46.71;98360.56;5011123;28;8845;-71
2021/06/25 06:31:19;;;;;;;;;1.20;1.20;;;;;35.70;45.03;98340.63;5009797;28;8964;-72
2021/06/25 06:36:24;;;;;;;;;1.00;1.00;;;;;35.85;43.38;98326.00;5008470;28;8960;-71
2021/06/25 06:39:29;;;;;;;;;0.60;0.60;;;;;36.04;43.78;98323.38;5008629;28;8973;-69
2021/06/25 06:42:37;;;;;;;;;1.00;1.00;;;;;36.21;44.38;98322.72;5009969;28;8865;-76
2021/06/25 06:45:22;;;;;;;;;1.20;1.20;;;;;36.33;43.62;98323.09;5009783;28;8901;-72
2021/06/25 06:47:50;;;;;;;;;2.00;2.00;;;;;36.36;42.58;98311.97;5008520;28;8845;-73
2021/06/25 06:50:20;;;;;;;;;0.60;0.60;;;;;36.47;43.57;98308.78;5007645;28;8979;-72
2021/06/25 06:52:50;;;;;;;;;1.80;1.80;;;;;36.54;42.43;98303.78;5010949;28;9582;-70
2021/06/25 06:55:21;;;;;;;;;1.00;1.00;;;;;36.73;41.68;98299.13;5011515;28;8902;-73
2021/06/25 06:57:49;;;;;;;;;2.40;2.40;;;;;36.89;44.68;98292.63;5011441;28;9570;-70
2021/06/25 07:00:19;;;;;;;;;1.00;1.00;;;;;37.00;42.78;98283.94;5015349;28;8845;-72
2021/06/25 07:02:49;;;;;;;;;1.80;1.80;;;;;37.12;43.06;98272.03;5015240;28;8859;-72
2021/06/25 07:05:18;;;;;;;;;2.00;2.00;;;;;37.27;43.37;98272.25;5014872;28;8925;-72
2021/06/25 07:07:47;;;;;;;;;3.00;3.00;;;;;37.34;41.47;98269.19;5015419;28;8943;-72
2021/06/25 07:10:16;;;;;;;;;1.60;1.60;;;;;37.27;42.57;98255.72;5014970;28;8944;-71
2021/06/25 07:12:45;;;;;;;;;3.20;2.40;;;;;37.38;41.78;98269.78;5016107;28;8849;-72
2021/06/25 07:15:14;;;;;;;;;1.20;1.20;;;;;37.34;40.18;98264.44;5015354;28;9609;-72
2021/06/25 07:17:42;;;;;;;;;1.00;1.00;;;;;37.26;40.44;98271.47;5011640;28;9567;-72
2021/06/25 07:20:11;;;;;;;;;1.80;1.80;;;;;37.12;43.11;98261.03;5013645;28;8845;-73
2021/06/25 07:22:40;;;;;;;;;2.00;2.00;;;;;36.98;42.83;98251.41;5013200;28;8826;-73
2021/06/25 07:25:09;;;;;;;;;1.80;1.80;;;;;36.86;42.45;98249.56;5013415;28;8948;-73
2021/06/25 07:27:40;;;;;;;;;2.00;2.00;;;;;36.72;41.51;98239.88;5013630;28;8814;-71
2021/06/25 07:30:09;;;;;;;;;1.80;1.80;;;;;36.58;42.31;98248.69;5012161;28;8903;-72
2021/06/25 07:32:38;;;;;;;;;1.00;1.00;;;;;36.40;44.39;98237.69;5012349;28;9643;-73
2021/06/25 07:35:07;;;;;;;;;0.80;0.80;;;;;36.22;43.70;98239.09;5012826;28;8876;-73
2021/06/25 07:37:36;;;;;;;;;2.00;2.00;;;;;35.93;44.02;98225.69;5013465;28;8846;-72
2021/06/25 07:40:06;;;;;;;;;1.00;1.00;;;;;35.80;44.43;98236.00;5013862;28;8822;-72
2021/06/25 07:42:35;;;;;;;;;2.00;2.00;;;;;35.57;44.13;98228.97;5027566;28;8972;-72
2021/06/25 07:45:09;;;;;;;;;1.20;1.20;;;;;35.36;45.14;98229.72;5009635;28;8991;-72
2021/06/25 07:47:44;;;;;;;;;1.00;1.00;;;;;35.08;45.70;98222.47;5011469;28;8972;-72
2021/06/25 07:50:15;;;;;;;;;1.20;1.20;;;;;34.95;47.21;98212.31;5010231;28;9027;-71
2021/06/25 07:52:45;;;;;;;;;0.80;0.80;;;;;34.90;47.80;98210.16;5011100;28;8837;-72
2021/06/25 07:55:15;;;;;;;;;1.00;1.00;;;;;34.94;47.13;98205.31;5011321;28;8825;-74
2021/06/25 07:57:44;;;;;;;;;0.80;0.80;;;;;35.04;47.50;98214.38;5011163;28;8850;-73
2021/06/25 08:00:13;;;;;;;;;1.20;1.20;;;;;35.07;47.31;98208.00;5011007;28;9708;-73
2021/06/25 08:03:01;;;;;;;;;0.80;0.80;;;;;35.08;46.76;98206.81;5009907;28;8854;-73
2021/06/25 08:05:43;;;;;;;;;2.00;2.00;;;;;35.02;47.03;98219.53;5009618;28;8876;-73
2021/06/25 08:08:12;;;;;;;;;1.60;1.60;;;;;34.88;47.04;98193.38;5009513;28;8989;-72
2021/06/25 08:10:42;;;;;;;;;1.00;1.00;;;;;34.80;47.09;98189.31;5010707;28;8868;-72
2021/06/25 08:13:11;;;;;;;;;1.40;1.40;;;;;34.71;47.13;98189.22;5009790;28;8861;-72
2021/06/25 08:15:41;;;;;;;;;1.00;1.00;;;;;34.60;47.87;98191.56;5011172;28;8845;-73
2021/06/25 08:18:10;;;;;;;;;1.60;1.60;;;;;34.47;47.85;98177.88;5011638;28;8849;-73
2021/06/25 08:20:43;;;;;;;;;2.60;2.60;;;;;34.47;47.84;98177.88;5011486;28;8830;-71
2021/06/25 08:23:12;;;;;;;;;1.00;1.00;;;;;34.52;48.10;98180.06;5027238;28;8830;-72
2021/06/25 08:25:42;;;;;;;;;1.80;1.80;;;;;34.55;47.95;98181.16;5010771;28;8813;-72
2021/06/25 08:28:11;;;;;;;;;2.00;2.00;;;;;34.52;48.00;98185.53;5009745;28;8895;-73
2021/06/25 08:30:40;;;;;;;;;0.60;0.60;;;;;34.36;48.14;98180.19;5010375;28;8850;-73
2021/06/25 08:33:11;;;;;;;;;1.20;1.20;;;;;34.16;48.06;98174.16;5008207;28;8876;-71
2021/06/25 08:35:40;;;;;;;;;2.00;2.00;;;;;33.94;48.95;98161.13;5010350;28;8837;-71
2021/06/25 08:38:08;;;;;;;;;3.80;3.80;;;;;33.80;48.69;98158.03;5008985;28;8852;-71
2021/06/25 08:40:37;;;;;;;;;1.60;1.60;;;;;33.72;48.63;98158.25;5011329;28;8885;-72
2021/06/25 08:43:07;;;;;;;;;2.20;2.20;;;;;33.72;48.90;98160.22;5025552;28;8849;-73
2021/06/25 08:45:36;;;;;;;;;3.00;2.20;;;;;33.74;49.02;98151.59;5009199;28;8943;-72
2021/06/25 08:48:07;;;;;;;;;1.60;1.60;;;;;33.74;49.27;98140.63;5011798;28;8928;-72
2021/06/25 08:50:40;;;;;;;;;2.00;2.00;;;;;33.77;49.29;98137.03;5011239;28;8932;-72
2021/06/25 08:53:09;;;;;;;;;1.00;1.00;;;;;33.79;49.09;98137.38;5012038;28;8841;-72
2021/06/25 08:55:43;;;;;;;;;2.00;2.00;;;;;33.79;49.37;98126.41;5012319;28;8956;-74
2021/06/25 08:58:20;;;;;;;;;1.00;1.00;;;;;33.74;48.91;98113.28;5012080;28;8915;-72
2021/06/25 09:00:49;;;;;;;;;1.00;1.00;;;;;33.92;48.14;98122.47;5015597;28;8952;-72
2021/06/25 09:03:30;;;;;;;;;1.40;1.40;;;;;34.11;47.76;98123.47;5010357;28;8865;-71
2021/06/25 09:06:13;;;;;;;;;2.00;2.00;;;;;34.28;47.49;98113.91;5010016;28;8927;-73
2021/06/25 09:08:42;;;;;;;;;2.20;2.20;;;;;34.45;47.95;98114.56;5010053;28;8915;-72
2021/06/25 09:11:32;;;;;;;;;2.00;2.00;;;;;34.57;47.89;98107.53;5010845;28;8818;-72
2021/06/25 09:14:04;;;;;;;;;2.00;2.00;;;;;34.72;47.17;98107.81;5010032;28;8915;-73
2021/06/25 09:16:36;;;;;;;;;3.00;3.00;;;;;34.82;47.50;98110.19;5010342;28;8936;-74
2021/06/25 09:19:16;;;;;;;;;1.80;0.80;;;;;34.89;46.97;98107.22;5010018;28;8834;-74
2021/06/25 09:22:02;;;;;;;;;1.80;1.80;;;;;34.94;46.87;98120.34;5010031;28;8842;-74
2021/06/25 09:24:31;;;;;;;;;2.40;2.40;;;;;34.93;46.92;98121.56;5011769;28;8821;-74
2021/06/25 09:27:08;;;;;;;;;2.00;2.00;;;;;34.85;46.97;98117.53;5010812;28;8842;-74
2021/06/25 09:29:44;;;;;;;;;1.80;1.80;;;;;34.88;46.83;98113.13;5011620;28;8872;-73
2021/06/25 09:32:12;;;;;;;;;2.60;2.60;;;;;34.83;45.98;98103.50;5012132;28;8826;-72
2021/06/25 09:34:52;;;;;;;;;4.00;4.00;;;;;34.79;46.74;98091.13;5011615;28;8825;-73
2021/06/25 09:37:21;;;;;;;;;3.40;3.40;;;;;34.84;47.65;98090.56;5011276;28;8837;-72
2021/06/25 09:40:01;;;;;;;;;1.40;1.40;;;;;34.82;48.49;98096.50;5010481;28;8845;-71
2021/06/25 09:42:30;;;;;;;;;3.00;3.00;;;;;34.84;48.00;98102.31;5009546;28;8945;-71
2021/06/25 09:45:19;;;;;;;;;2.60;2.60;;;;;34.80;47.88;98098.13;5011480;28;8956;-72
2021/06/25 09:47:55;;;;;;;;;2.40;2.40;;;;;34.75;47.48;98107.69;5009500;28;8841;-72
2021/06/25 09:50:33;;;;;;;;;4.60;4.00;;;;;34.69;48.30;98106.72;5010618;28;8904;-72
2021/06/25 09:53:04;;;;;;;;;2.80;2.80;;;;;34.65;48.35;98100.59;5010715;28;8849;-71
2021/06/25 10:03:57;;;;;;;;;2.40;2.40;;;;;34.64;47.36;98099.06;5008584;28;8861;-73
2021/06/25 10:06:33;;;;;;;;;2.00;2.00;;;;;34.61;47.33;98100.72;5009051;28;8850;-72
2021/06/25 10:09:02;;;;;;;;;2.80;1.80;;;;;34.60;48.05;98101.16;5008383;28;8940;-72
2021/06/25 10:11:33;;;;;;;;;1.00;1.00;;;;;34.53;47.94;98101.41;5008090;28;9395;-73
2021/06/25 10:14:04;;;;;;;;;1.80;1.80;;;;;34.40;47.06;98095.97;5008755;28;8829;-72
2021/06/25 10:16:33;;;;;;;;;1.80;1.80;;;;;34.38;47.65;98094.88;5007411;28;8842;-72
2021/06/25 10:19:03;;;;;;;;;1.20;1.20;;;;;34.41;48.62;98108.44;5007306;28;8829;-72
2021/06/25 10:21:33;;;;;;;;;1.80;1.80;;;;;34.39;47.67;98110.84;5007700;28;8845;-72
2021/06/25 10:24:03;;;;;;;;;1.00;1.00;;;;;34.34;47.86;98108.69;5007372;28;8962;-73
2021/06/25 10:26:33;;;;;;;;;3.00;3.00;;;;;34.34;48.16;98103.97;5008754;28;8923;-73
2021/06/25 10:29:03;;;;;;;;;2.40;2.40;;;;;34.31;48.18;98106.81;5008185;28;9023;-72
2021/06/25 10:31:32;;;;;;;;;2.00;2.00;;;;;34.34;49.79;98106.69;5007873;28;8874;-73
2021/06/25 10:34:01;;;;;;;;;1.00;1.00;;;;;34.31;49.76;98098.59;5006827;28;8876;-74
2021/06/25 10:36:35;;;;;;;;;1.80;1.80;;;;;34.26;49.34;98099.91;5009786;28;8939;-72
2021/06/25 10:39:06;;;;;;;;;2.80;1.00;;;;;34.24;50.17;98096.84;5008157;28;9718;-71
2021/06/25 10:41:48;;;;;;;;;3.00;3.00;;;;;34.17;49.87;98093.56;5008083;28;10862;-70
2021/06/25 10:44:48;;;;;;;;;3.40;3.40;;;;;34.09;49.32;98108.69;5014531;28;8838;-70
2021/06/25 10:47:24;;;;;;;;;2.80;2.80;;;;;33.98;49.57;98104.31;5006873;28;8917;-71
2021/06/25 10:50:16;;;;;;;;;3.00;3.00;;;;;33.84;49.51;98112.97;5007933;28;8826;-72
2021/06/25 10:53:06;;;;;;;;;2.40;2.40;;;;;33.70;50.12;98113.41;5008419;28;8850;-72
2021/06/25 10:55:44;;;;;;;;;4.40;4.40;;;;;33.66;50.01;98118.22;5011260;28;8841;-72
2021/06/25 10:58:24;;;;;;;;;4.00;4.00;;;;;33.63;50.02;98122.56;5011876;28;8821;-73
2021/06/25 11:00:57;;;;;;;;;4.40;4.40;;;;;33.59;51.00;98135.59;5032625;28;8833;-73
2021/06/25 11:03:41;;;;;;;;;6.60;6.60;;;;;33.52;52.28;98143.22;5008813;28;8842;-71
2021/06/25 11:06:49;;;;;;;;;5.60;5.60;;;;;33.53;50.81;98158.44;5010524;28;8845;-71
2021/06/25 11:09:18;;;;;;;;;3.60;3.60;;;;;33.49;50.68;98177.69;5007847;28;8873;-71
2021/06/25 11:11:46;;;;;;;;;5.20;5.20;;;;;33.45;51.78;98204.34;5007671;28;8861;-73
2021/06/25 11:14:28;;;;;;;;;4.00;4.00;;;;;33.37;50.84;98205.75;5008737;28;8833;-71
2021/06/25 11:16:56;;;;;;;;;4.20;3.80;;;;;33.28;50.35;98213.78;5010795;28;8842;-70
2021/06/25 11:19:41;;;;;;;;;4.20;4.20;;;;;33.12;50.78;98211.09;5010324;28;8857;-71
2021/06/25 11:22:34;;;;;;;;;2.00;2.00;;;;;33.02;51.08;98213.66;5008290;28;8845;-70
2021/06/25 11:25:03;;;;;;;;;2.60;2.60;;;;;32.86;51.60;98237.50;5008570;28;9632;-73
2021/06/25 11:28:03;;;;;;;;;3.00;3.00;;;;;32.66;51.69;98229.38;5008403;28;8869;-71
2021/06/25 11:31:03;;;;;;;;;3.00;3.00;;;;;32.50;52.51;98232.91;5007318;28;8971;-72
2021/06/25 11:33:42;;;;;;;;;2.20;2.20;;;;;32.26;51.93;98240.47;5005269;28;8842;-70
2021/06/25 11:36:24;;;;;;;;;2.80;2.80;;;;;32.10;52.57;98243.13;5001756;28;9879;-70
2021/06/25 11:39:14;;;;;;;;;4.80;4.00;;;;;31.81;54.20;98234.75;5005228;28;8874;-71
2021/06/25 11:42:14;;;;;;;;;3.60;3.60;;;;;31.76;53.60;98251.63;5007058;28;9032;-71
2021/06/25 11:44:47;;;;;;;;;2.00;2.00;;;;;31.60;54.55;98257.75;5008593;28;8892;-72
2021/06/25 11:47:29;;;;;;;;;5.40;5.40;;;;;31.49;53.61;98262.63;5010439;28;8845;-72
2021/06/25 11:50:02;;;;;;;;;5.20;5.20;;;;;31.43;53.02;98267.03;5010281;28;8959;-73
2021/06/25 11:52:40;;;;;;;;;4.00;4.00;;;;;31.42;52.97;98276.38;5009916;28;8984;-73
2021/06/25 11:55:13;;;;;;;;;3.00;3.00;;;;;31.39;53.12;98271.78;5009871;28;8833;-72
2021/06/25 11:57:42;;;;;;;;;3.00;3.00;;;;;31.40;52.88;98281.47;5011561;28;8935;-73
2021/06/25 12:00:20;;;;;;;;;8.25;8.25;;;;;31.39;52.51;98285.41;5010139;28;8922;-72
2021/06/25 12:02:53;;;;;;;;;6.20;6.20;;;;;31.31;52.71;98290.19;5025200;28;8853;-73
2021/06/25 12:05:33;;;;;;;;;10.25;9.75;;;;;31.21;52.81;98295.84;5008668;28;8842;-72
2021/06/25 12:08:07;;;;;;;;;4.00;4.00;;;;;31.20;53.00;98303.28;5010211;28;8833;-73
2021/06/25 12:10:41;;;;;;;;;6.00;6.00;;;;;31.10;52.97;98287.84;5010010;28;8873;-73
2021/06/25 12:13:11;;;;;;;;;5.80;5.80;;;;;31.13;53.18;98295.97;5009853;28;8841;-72
2021/06/25 12:15:44;;;;;;;;;4.20;4.20;;;;;31.11;53.13;98303.00;5008681;28;8853;-72
2021/06/25 12:18:33;;;;;;;;;2.20;2.20;;;;;31.08;53.28;98310.06;5025193;28;8947;-74
2021/06/25 12:21:08;;;;;;;;;4.00;4.00;;;;;31.03;53.27;98321.41;5012034;28;8841;-71
2021/06/25 12:23:37;;;;;;;;;2.80;2.80;;;;;31.02;53.06;98317.16;5016264;28;8862;-71
2021/06/25 12:26:17;;;;;;;;;3.80;3.80;;;;;31.00;53.24;98318.75;5013291;28;8877;-73